createdAt,value
2023-09-07T00:00:16.302Z,2.80
2023-09-07T00:02:42.844Z,2.83
2023-09-07T00:05:10.057Z,3.00
2023-09-07T00:07:37.243Z,2.92
2023-09-07T00:10:05.408Z,3.00
2023-09-07T00:12:31.474Z,3.05
2023-09-07T00:14:58.262Z,3.10
2023-09-07T00:17:25.005Z,3.15
2023-09-07T00:19:52.904Z,3.03
2023-09-07T00:22:19.768Z,2.97
2023-09-07T00:24:46.460Z,2.90
2023-09-07T00:27:12.465Z,2.90
2023-09-07T00:29:41.968Z,2.92
2023-09-07T00:32:08.267Z,2.92
2023-09-07T00:34:34.860Z,2.78
2023-09-07T00:37:01.560Z,2.90
2023-09-07T00:39:28.037Z,2.90
2023-09-07T00:41:55.775Z,2.83
2023-09-07T00:44:22.247Z,2.80
2023-09-07T00:46:48.696Z,2.75
2023-09-07T00:49:15.163Z,2.70
2023-09-07T00:51:41.630Z,2.80
2023-09-07T00:54:08.760Z,2.70
2023-09-07T00:56:35.456Z,2.72
2023-09-07T00:59:01.655Z,2.80
2023-09-07T01:01:28.547Z,2.90
2023-09-07T01:03:57.535Z,2.80
2023-09-07T01:06:27.996Z,2.50
2023-09-07T01:08:58.369Z,2.60
2023-09-07T01:11:24.894Z,2.85
2023-09-07T01:13:54.490Z,2.70
2023-09-07T01:16:21.940Z,2.60
2023-09-07T01:18:48.772Z,2.65
2023-09-07T01:21:15.700Z,2.50
2023-09-07T01:23:42.690Z,2.70
2023-09-07T01:26:09.445Z,2.70
2023-09-07T01:28:36.066Z,2.67
2023-09-07T01:31:02.186Z,2.90
2023-09-07T01:33:28.632Z,2.65
2023-09-07T01:35:55.194Z,2.62
2023-09-07T01:38:21.667Z,2.70
2023-09-07T01:40:48.125Z,2.60
2023-09-07T01:43:14.738Z,2.50
2023-09-07T01:45:41.213Z,2.37
2023-09-07T01:48:15.359Z,2.70
2023-09-07T01:50:42.084Z,2.70
2023-09-07T01:53:08.504Z,2.50
2023-09-07T01:55:34.734Z,2.30
2023-09-07T01:58:01.392Z,2.40
2023-09-07T02:00:27.916Z,2.42
2023-09-07T02:02:54.090Z,2.40
2023-09-07T02:05:21.729Z,2.45
2023-09-07T02:07:50.203Z,2.47
2023-09-07T02:10:17.078Z,2.40
2023-09-07T02:12:43.544Z,2.40
2023-09-07T02:15:10.968Z,2.50
2023-09-07T02:17:37.495Z,2.50
2023-09-07T02:20:10.673Z,2.70
2023-09-07T02:22:37.627Z,2.50
2023-09-07T02:25:05.928Z,2.42
2023-09-07T02:27:33.434Z,2.30
2023-09-07T02:30:00.018Z,2.35
2023-09-07T02:32:27.034Z,2.40
2023-09-07T02:34:53.911Z,2.40
2023-09-07T02:37:20.370Z,2.40
2023-09-07T02:39:46.504Z,2.40
2023-09-07T02:42:12.963Z,2.50
2023-09-07T02:44:40.086Z,2.40
2023-09-07T02:47:06.720Z,2.50
2023-09-07T02:49:33.216Z,2.40
2023-09-07T02:51:59.700Z,2.30
2023-09-07T02:54:25.751Z,2.30
2023-09-07T02:56:52.575Z,2.20
2023-09-07T02:59:19.615Z,2.30
2023-09-07T03:01:46.161Z,2.30
2023-09-07T03:04:12.683Z,2.30
2023-09-07T03:06:39.305Z,2.12
2023-09-07T03:09:09.640Z,2.30
2023-09-07T03:11:36.369Z,2.20
2023-09-07T03:14:02.873Z,2.10
2023-09-07T03:16:31.044Z,2.40
2023-09-07T03:18:57.242Z,2.30
2023-09-07T03:21:29.781Z,2.40
2023-09-07T03:23:57.793Z,2.35
2023-09-07T03:26:25.363Z,2.40
2023-09-07T03:28:52.968Z,2.30
2023-09-07T03:31:19.435Z,2.40
2023-09-07T03:33:46.348Z,2.40
2023-09-07T03:36:15.334Z,2.50
2023-09-07T03:38:42.257Z,2.30
2023-09-07T03:41:08.831Z,2.50
2023-09-07T03:43:35.305Z,2.40
2023-09-07T03:46:01.378Z,2.40
2023-09-07T03:48:27.480Z,2.40
2023-09-07T03:50:53.907Z,2.40
2023-09-07T03:53:20.384Z,2.30
2023-09-07T03:55:47.014Z,2.30
2023-09-07T03:58:13.096Z,2.40
2023-09-07T04:00:43.300Z,2.50
2023-09-07T04:03:09.508Z,2.40
2023-09-07T04:05:38.537Z,2.60
2023-09-07T04:08:05.478Z,2.50
2023-09-07T04:10:31.939Z,2.40
2023-09-07T04:12:58.397Z,2.40
2023-09-07T04:15:27.153Z,2.50
2023-09-07T04:17:55.459Z,2.60
2023-09-07T04:20:22.978Z,2.37
2023-09-07T04:22:49.411Z,2.40
2023-09-07T04:25:16.534Z,2.40
2023-09-07T04:27:43.001Z,2.42
2023-09-07T04:30:09.918Z,2.60
2023-09-07T04:32:36.454Z,2.70
2023-09-07T04:35:03.321Z,2.50
2023-09-07T04:37:29.775Z,2.58
2023-09-07T04:39:56.262Z,2.55
2023-09-07T04:42:22.705Z,2.80
2023-09-07T04:44:49.483Z,2.80
2023-09-07T04:47:16.186Z,2.67
2023-09-07T04:49:42.646Z,2.80
2023-09-07T04:52:09.731Z,2.60
2023-09-07T04:54:36.449Z,2.90
2023-09-07T04:57:02.587Z,2.80
2023-09-07T04:59:29.059Z,2.50
2023-09-07T05:01:55.548Z,2.60
2023-09-07T05:04:22.309Z,2.75
2023-09-07T05:06:48.894Z,2.83
2023-09-07T05:09:15.412Z,3.10
2023-09-07T05:11:41.859Z,2.90
2023-09-07T05:14:08.338Z,3.08
2023-09-07T05:16:34.858Z,3.00
2023-09-07T05:19:01.356Z,3.10
2023-09-07T05:21:27.845Z,3.30
2023-09-07T05:23:54.361Z,3.33
2023-09-07T05:26:26.122Z,3.50
2023-09-07T05:28:52.268Z,3.60
2023-09-07T05:31:18.918Z,3.53
2023-09-07T05:33:45.429Z,3.30
2023-09-07T05:36:11.899Z,3.55
2023-09-07T05:38:38.604Z,3.45
2023-09-07T05:41:05.749Z,3.58
2023-09-07T05:43:32.344Z,3.67
2023-09-07T05:45:58.462Z,4.37
2023-09-07T05:48:24.542Z,4.60
2023-09-07T05:50:51.056Z,4.90
2023-09-07T05:53:25.043Z,6.20
2023-09-07T05:55:51.535Z,6.45
2023-09-07T05:58:18.020Z,7.55
2023-09-07T06:00:44.192Z,5.85
2023-09-07T06:03:10.964Z,5.00
2023-09-07T06:05:38.110Z,5.95
2023-09-07T06:08:04.594Z,7.20
2023-09-07T06:10:30.632Z,6.20
2023-09-07T06:12:57.135Z,6.22
2023-09-07T06:15:23.304Z,3.30
2023-09-07T06:17:50.223Z,2.50
2023-09-07T06:20:16.511Z,2.40
2023-09-07T06:22:42.701Z,2.30
2023-09-07T06:25:08.963Z,2.70
2023-09-07T06:27:35.073Z,2.45
2023-09-07T06:30:01.236Z,2.60
2023-09-07T06:32:27.423Z,2.60
2023-09-07T06:34:53.561Z,2.60
2023-09-07T06:37:19.844Z,2.87
2023-09-07T06:39:45.902Z,3.53
2023-09-07T06:42:11.959Z,3.90
2023-09-07T06:44:38.149Z,3.40
2023-09-07T06:47:04.284Z,3.60
2023-09-07T06:49:31.154Z,3.58
2023-09-07T06:51:57.930Z,3.33
2023-09-07T06:54:24.676Z,3.70
2023-09-07T06:56:51.197Z,3.90
2023-09-07T06:59:17.331Z,2.97
2023-09-07T07:01:44.036Z,5.15
2023-09-07T07:04:10.420Z,5.20
2023-09-07T07:06:37.022Z,6.25
2023-09-07T07:09:03.376Z,3.30
2023-09-07T07:11:32.386Z,3.15
2023-09-07T07:13:58.937Z,3.05
2023-09-07T07:16:25.944Z,3.40
2023-09-07T07:18:52.495Z,3.35
2023-09-07T07:21:18.582Z,6.45
2023-09-07T07:23:44.571Z,6.65
2023-09-07T07:26:11.131Z,4.75
2023-09-07T07:28:37.221Z,8.23
2023-09-07T07:31:10.748Z,11.50
2023-09-07T07:33:37.913Z,5.15
2023-09-07T07:36:05.703Z,4.53
2023-09-07T07:38:32.316Z,8.30
2023-09-07T07:40:58.806Z,7.30
2023-09-07T07:43:25.305Z,3.28
2023-09-07T07:45:54.452Z,4.10
2023-09-07T07:48:21.009Z,4.65
2023-09-07T07:50:47.629Z,5.05
2023-09-07T07:53:15.112Z,14.52
2023-09-07T07:55:42.234Z,13.95
2023-09-07T07:58:09.463Z,7.70
2023-09-07T08:00:36.336Z,3.25
2023-09-07T08:03:07.394Z,3.87
2023-09-07T08:05:34.740Z,12.80
2023-09-07T08:08:00.798Z,5.95
2023-09-07T08:10:29.453Z,9.18
2023-09-07T08:12:57.798Z,9.77
2023-09-07T08:15:25.433Z,6.75
2023-09-07T08:17:52.357Z,4.72
2023-09-07T08:20:18.755Z,5.35
2023-09-07T08:22:46.172Z,4.95
2023-09-07T08:25:16.021Z,5.03
2023-09-07T08:27:44.604Z,5.53
2023-09-07T08:30:16.262Z,5.95
2023-09-07T08:32:42.586Z,7.60
2023-09-07T08:35:13.679Z,9.27
2023-09-07T08:37:40.607Z,8.35
2023-09-07T08:40:08.187Z,9.60
2023-09-07T08:42:37.369Z,10.68
2023-09-07T08:45:06.636Z,10.15
2023-09-07T08:47:34.878Z,11.38
2023-09-07T08:50:02.170Z,17.58
2023-09-07T08:52:28.719Z,27.00
2023-09-07T08:54:56.037Z,27.85
2023-09-07T08:57:22.752Z,29.70
2023-09-07T08:59:49.977Z,30.62
2023-09-07T09:02:17.253Z,27.58
2023-09-07T09:04:43.688Z,28.60
2023-09-07T09:07:10.064Z,30.75
2023-09-07T09:09:36.739Z,34.40
2023-09-07T09:12:12.741Z,41.17
2023-09-07T09:14:43.957Z,33.63
2023-09-07T09:17:14.495Z,28.58
2023-09-07T09:19:42.134Z,34.28
2023-09-07T09:22:08.514Z,23.58
2023-09-07T09:24:35.679Z,25.12
2023-09-07T09:27:02.448Z,18.83
2023-09-07T09:29:29.441Z,13.07
2023-09-07T09:31:55.961Z,21.83
2023-09-07T09:34:22.425Z,15.55
2023-09-07T09:36:48.852Z,32.58
2023-09-07T09:39:24.900Z,14.38
2023-09-07T09:41:52.410Z,16.10
2023-09-07T09:44:18.769Z,15.27
2023-09-07T09:46:45.288Z,14.80
2023-09-07T09:49:13.721Z,16.20
2023-09-07T09:51:41.393Z,14.73
2023-09-07T09:54:10.480Z,14.48
2023-09-07T09:56:36.853Z,8.90
2023-09-07T09:59:03.289Z,13.13
2023-09-07T10:01:32.619Z,13.27
2023-09-07T10:03:59.619Z,5.97
2023-09-07T10:06:28.560Z,12.70
2023-09-07T10:09:05.503Z,7.03
2023-09-07T10:11:32.665Z,4.40
2023-09-07T10:14:00.331Z,3.80
2023-09-07T10:16:27.945Z,4.90
2023-09-07T10:18:55.600Z,3.72
2023-09-07T10:21:27.294Z,4.28
2023-09-07T10:23:54.436Z,5.05
2023-09-07T10:26:24.105Z,4.62
2023-09-07T10:29:00.717Z,4.75
2023-09-07T10:31:36.603Z,3.60
2023-09-07T10:34:13.570Z,4.10
2023-09-07T10:36:39.916Z,5.60
2023-09-07T10:39:07.338Z,7.05
2023-09-07T10:41:46.186Z,8.57
2023-09-07T10:44:14.122Z,10.95
2023-09-07T10:46:40.676Z,9.73
2023-09-07T10:49:12.035Z,8.48
2023-09-07T10:51:43.311Z,12.15
2023-09-07T10:54:22.889Z,9.10
2023-09-07T10:56:49.945Z,10.18
2023-09-07T10:59:16.960Z,12.05
2023-09-07T11:01:44.540Z,12.18
2023-09-07T11:04:15.140Z,14.35
2023-09-07T11:06:41.761Z,12.48
2023-09-07T11:09:11.157Z,11.70
2023-09-07T11:11:37.639Z,11.60
2023-09-07T11:14:07.829Z,11.02
2023-09-07T11:16:34.771Z,10.75
2023-09-07T11:19:08.729Z,10.25
2023-09-07T11:21:38.934Z,9.45
2023-09-07T11:24:05.906Z,9.57
2023-09-07T11:26:46.062Z,9.32
2023-09-07T11:29:19.490Z,10.98
2023-09-07T11:31:46.124Z,16.02
2023-09-07T11:34:13.999Z,16.48
2023-09-07T11:36:41.326Z,11.68
2023-09-07T11:39:13.886Z,11.15
2023-09-07T11:41:45.030Z,9.85
2023-09-07T11:44:12.018Z,11.65
2023-09-07T11:46:39.598Z,13.13
2023-09-07T11:49:06.709Z,11.25
2023-09-07T11:51:33.115Z,14.25
2023-09-07T11:53:59.941Z,16.00
2023-09-07T11:56:26.303Z,18.83
2023-09-07T11:58:52.729Z,18.00
2023-09-07T12:01:19.248Z,16.58
2023-09-07T12:03:46.491Z,15.88
2023-09-07T12:06:13.198Z,15.73
2023-09-07T12:08:43.359Z,17.87
2023-09-07T12:11:09.752Z,18.02
2023-09-07T12:13:36.139Z,12.00
2023-09-07T12:16:03.058Z,16.48
2023-09-07T12:18:29.650Z,17.10
2023-09-07T12:20:58.184Z,17.87
2023-09-07T12:23:24.647Z,14.40
2023-09-07T12:25:51.966Z,16.75
2023-09-07T12:28:18.430Z,17.60
2023-09-07T12:30:45.168Z,16.98
2023-09-07T12:33:14.380Z,11.10
2023-09-07T12:35:41.321Z,11.85
2023-09-07T12:38:09.546Z,13.43
2023-09-07T12:40:36.545Z,15.82
2023-09-07T12:43:04.361Z,12.77
2023-09-07T12:45:30.838Z,13.82
2023-09-07T12:47:57.854Z,16.00
2023-09-07T12:50:24.337Z,16.65
2023-09-07T12:52:50.864Z,13.30
2023-09-07T12:55:19.398Z,13.57
2023-09-07T12:57:45.760Z,15.73
2023-09-07T13:00:13.458Z,16.20
2023-09-07T13:02:39.981Z,17.37
2023-09-07T13:05:07.075Z,15.80
2023-09-07T13:07:34.846Z,15.80
2023-09-07T13:10:04.670Z,14.23
2023-09-07T13:12:32.348Z,16.73
2023-09-07T13:14:58.710Z,15.57
2023-09-07T13:17:25.158Z,16.80
2023-09-07T13:19:51.512Z,17.77
2023-09-07T13:22:17.957Z,16.73
2023-09-07T13:24:44.360Z,15.48
2023-09-07T13:27:10.761Z,15.60
2023-09-07T13:29:37.833Z,15.18
2023-09-07T13:32:04.736Z,15.20
2023-09-07T13:34:31.116Z,15.75
2023-09-07T13:36:58.165Z,17.05
2023-09-07T13:39:24.558Z,15.35
2023-09-07T13:41:50.945Z,19.42
2023-09-07T13:44:17.856Z,16.92
2023-09-07T13:46:44.535Z,15.68
2023-09-07T13:49:11.391Z,15.20
2023-09-07T13:51:40.751Z,17.55
2023-09-07T13:54:08.163Z,9.43
2023-09-07T13:56:34.580Z,12.13
2023-09-07T13:59:01.140Z,11.88
2023-09-07T14:01:27.700Z,13.30
2023-09-07T14:03:54.125Z,14.45
2023-09-07T14:06:23.264Z,12.70
2023-09-07T14:08:49.649Z,10.90
2023-09-07T14:11:16.071Z,14.73
2023-09-07T14:13:42.542Z,12.80
2023-09-07T14:16:11.030Z,8.40
2023-09-07T14:18:37.682Z,10.18
2023-09-07T14:21:04.224Z,7.37
2023-09-07T14:23:30.973Z,8.95
2023-09-07T14:25:57.571Z,8.77
2023-09-07T14:28:24.018Z,7.40
2023-09-07T14:30:50.591Z,7.10
2023-09-07T14:33:17.292Z,7.35
2023-09-07T14:35:43.625Z,7.03
2023-09-07T14:38:10.112Z,6.70
2023-09-07T14:40:36.476Z,6.50
2023-09-07T14:43:04.244Z,6.43
2023-09-07T14:45:30.622Z,6.47
2023-09-07T14:47:57.031Z,7.03
2023-09-07T14:50:23.504Z,6.53
2023-09-07T14:52:49.932Z,6.97
2023-09-07T14:55:16.479Z,6.93
2023-09-07T14:57:43.463Z,6.05
2023-09-07T15:00:10.863Z,6.70
2023-09-07T15:02:37.298Z,5.75
2023-09-07T15:05:04.086Z,5.57
2023-09-07T15:07:31.931Z,5.93
2023-09-07T15:09:58.263Z,4.47
2023-09-07T15:12:24.674Z,4.75
2023-09-07T15:14:51.098Z,4.50
2023-09-07T15:17:18.894Z,4.65
2023-09-07T15:19:45.799Z,4.55
2023-09-07T15:22:12.206Z,4.20
2023-09-07T15:24:38.569Z,3.65
2023-09-07T15:27:09.702Z,3.42
2023-09-07T15:29:36.227Z,3.67
2023-09-07T15:32:02.954Z,3.25
2023-09-07T15:34:29.545Z,3.20
2023-09-07T15:36:55.930Z,3.25
2023-09-07T15:39:22.329Z,4.03
2023-09-07T15:41:48.683Z,4.68
2023-09-07T15:44:15.133Z,5.80
2023-09-07T15:46:44.942Z,6.82
2023-09-07T15:49:11.362Z,7.20
2023-09-07T15:51:37.792Z,8.38
2023-09-07T15:54:05.789Z,8.80
2023-09-07T15:56:32.132Z,8.45
2023-09-07T15:58:59.417Z,8.40
2023-09-07T16:01:25.964Z,9.25
2023-09-07T16:03:52.449Z,8.45
2023-09-07T16:06:19.002Z,8.25
2023-09-07T16:08:45.435Z,9.38
2023-09-07T16:11:11.850Z,10.73
2023-09-07T16:13:38.793Z,11.90
2023-09-07T16:16:05.235Z,12.98
2023-09-07T16:18:31.984Z,15.73
2023-09-07T16:20:59.154Z,17.77
2023-09-07T16:23:25.596Z,21.08
2023-09-07T16:25:51.970Z,21.33
2023-09-07T16:28:18.476Z,22.73
2023-09-07T16:30:46.234Z,24.42
2023-09-07T16:33:12.922Z,20.15
2023-09-07T16:35:39.306Z,19.00
2023-09-07T16:38:06.191Z,14.40
2023-09-07T16:40:32.993Z,12.82
2023-09-07T16:42:59.627Z,8.75
2023-09-07T16:45:26.099Z,6.53
2023-09-07T16:47:52.508Z,5.22
2023-09-07T16:50:18.951Z,5.00
2023-09-07T16:52:45.560Z,5.10
2023-09-07T16:55:12.205Z,4.78
2023-09-07T16:57:38.601Z,2.65
2023-09-07T17:00:06.708Z,3.00
2023-09-07T17:02:33.983Z,3.10
2023-09-07T17:05:00.695Z,2.70
2023-09-07T17:07:27.118Z,2.62
2023-09-07T17:09:53.859Z,2.60
2023-09-07T17:12:20.339Z,2.62
2023-09-07T17:14:48.967Z,2.70
2023-09-07T17:17:19.383Z,3.58
2023-09-07T17:19:46.243Z,3.17
2023-09-07T17:22:13.823Z,3.78
2023-09-07T17:24:40.657Z,45.88
2023-09-07T17:27:07.488Z,4.18
2023-09-07T17:29:34.357Z,4.25
2023-09-07T17:32:00.860Z,4.50
2023-09-07T17:34:28.729Z,5.70
2023-09-07T17:36:55.512Z,4.43
2023-09-07T17:39:22.306Z,5.05
2023-09-07T17:41:49.204Z,5.70
2023-09-07T17:44:16.099Z,5.20
2023-09-07T17:46:42.881Z,4.57
2023-09-07T17:49:09.936Z,3.92
2023-09-07T17:51:36.757Z,4.62
2023-09-07T17:54:03.574Z,4.85
2023-09-07T17:56:30.305Z,3.80
2023-09-07T17:58:57.337Z,3.55
2023-09-07T18:01:24.273Z,3.97
2023-09-07T18:03:51.280Z,3.90
2023-09-07T18:06:18.205Z,3.00
2023-09-07T18:08:44.689Z,2.80
2023-09-07T18:11:11.978Z,2.80
2023-09-07T18:13:38.722Z,2.60
2023-09-07T18:16:05.756Z,2.87
2023-09-07T18:18:35.103Z,3.20
2023-09-07T18:21:05.943Z,3.80
2023-09-07T18:23:32.847Z,3.20
2023-09-07T18:25:59.680Z,2.60
2023-09-07T18:28:26.731Z,2.47
2023-09-07T18:30:53.621Z,2.50
2023-09-07T18:33:21.247Z,2.78
2023-09-07T18:35:48.080Z,3.10
2023-09-07T18:38:14.914Z,2.80
2023-09-07T18:40:45.311Z,2.87
2023-09-07T18:43:12.132Z,2.90
2023-09-07T18:45:38.935Z,2.85
2023-09-07T18:48:06.102Z,2.90
2023-09-07T18:50:33.018Z,3.30
2023-09-07T18:52:59.906Z,3.20
2023-09-07T18:55:28.754Z,3.37
2023-09-07T18:57:55.383Z,3.30
2023-09-07T19:00:22.077Z,3.20
2023-09-07T19:02:48.918Z,3.33
2023-09-07T19:05:15.386Z,3.10
2023-09-07T19:07:42.444Z,3.45
2023-09-07T19:10:09.383Z,3.50
2023-09-07T19:12:36.499Z,3.20
2023-09-07T19:15:03.741Z,3.20
2023-09-07T19:17:30.650Z,3.28
2023-09-07T19:19:57.592Z,2.90
2023-09-07T19:22:24.618Z,3.20
2023-09-07T19:24:51.537Z,3.20
2023-09-07T19:27:18.339Z,3.10
2023-09-07T19:29:46.845Z,3.10
2023-09-07T19:32:15.492Z,3.20
2023-09-07T19:34:43.177Z,2.90
2023-09-07T19:37:09.980Z,2.90
2023-09-07T19:39:36.817Z,3.00
2023-09-07T19:42:03.496Z,3.70
2023-09-07T19:44:31.847Z,3.25
2023-09-07T19:46:58.942Z,3.75
2023-09-07T19:49:25.736Z,4.22
2023-09-07T19:51:52.562Z,3.83
2023-09-07T19:54:19.239Z,3.97
2023-09-07T19:56:45.742Z,4.40
2023-09-07T19:59:12.676Z,4.57
2023-09-07T20:02:01.952Z,4.62
2023-09-07T20:04:29.826Z,4.28
2023-09-07T20:06:56.345Z,4.22
2023-09-07T20:09:25.113Z,4.90
2023-09-07T20:11:52.121Z,4.20
2023-09-07T20:14:18.620Z,3.90
2023-09-07T20:16:45.882Z,3.00
2023-09-07T20:19:13.755Z,2.80
2023-09-07T20:21:40.753Z,2.70
2023-09-07T20:24:08.905Z,2.70
2023-09-07T20:26:35.659Z,2.70
2023-09-07T20:29:02.529Z,2.60
2023-09-07T20:31:29.006Z,2.58
2023-09-07T20:33:55.896Z,2.20
2023-09-07T20:36:22.436Z,3.00
2023-09-07T20:38:50.707Z,3.10
2023-09-07T20:41:17.628Z,2.90
2023-09-07T20:43:44.371Z,2.90
2023-09-07T20:46:11.349Z,2.87
2023-09-07T20:48:38.186Z,3.20
2023-09-07T20:51:04.930Z,3.20
2023-09-07T20:53:32.274Z,3.28
2023-09-07T20:55:58.910Z,3.40
2023-09-07T20:58:25.904Z,3.58
2023-09-07T21:00:53.066Z,3.28
2023-09-07T21:03:20.077Z,3.15
2023-09-07T21:05:46.709Z,3.15
2023-09-07T21:08:13.220Z,3.30
2023-09-07T21:10:40.079Z,3.30
2023-09-07T21:13:06.913Z,3.50
2023-09-07T21:15:33.708Z,3.70
2023-09-07T21:18:04.022Z,3.45
2023-09-07T21:20:31.482Z,3.17
2023-09-07T21:22:58.676Z,3.40
2023-09-07T21:25:25.513Z,3.50
2023-09-07T21:27:52.986Z,3.65
2023-09-07T21:30:19.876Z,3.60
2023-09-07T21:32:46.723Z,4.07
2023-09-07T21:35:13.223Z,4.10
2023-09-07T21:37:39.733Z,4.10
2023-09-07T21:40:07.421Z,4.22
2023-09-07T21:42:34.252Z,4.65
2023-09-07T21:45:00.821Z,4.40
2023-09-07T21:47:27.824Z,4.65
2023-09-07T21:49:54.640Z,5.25
2023-09-07T21:52:21.596Z,5.25
2023-09-07T21:54:48.448Z,5.68
2023-09-07T21:57:14.871Z,6.15
2023-09-07T21:59:41.853Z,6.07
2023-09-07T22:02:08.825Z,6.32
2023-09-07T22:04:35.422Z,5.85
2023-09-07T22:07:02.443Z,5.57
2023-09-07T22:09:28.975Z,5.25
2023-09-07T22:11:55.832Z,5.30
2023-09-07T22:14:26.884Z,4.90
2023-09-07T22:16:53.875Z,4.72
2023-09-07T22:19:20.366Z,4.45
2023-09-07T22:21:47.217Z,4.57
2023-09-07T22:24:13.783Z,4.60
2023-09-07T22:26:40.873Z,4.22
2023-09-07T22:29:08.530Z,4.20
2023-09-07T22:31:34.999Z,4.18
2023-09-07T22:34:01.795Z,4.47
2023-09-07T22:36:28.340Z,5.22
2023-09-07T22:38:56.339Z,6.15
2023-09-07T22:41:24.084Z,4.70
2023-09-07T22:43:53.895Z,4.80
2023-09-07T22:46:20.397Z,4.00
2023-09-07T22:48:46.972Z,3.53
2023-09-07T22:51:13.414Z,3.85
2023-09-07T22:53:40.323Z,3.92
2023-09-07T22:56:07.106Z,3.85
2023-09-07T22:58:36.367Z,3.80
2023-09-07T23:01:03.203Z,3.97
2023-09-07T23:03:30.201Z,3.90
2023-09-07T23:05:57.948Z,3.78
2023-09-07T23:08:24.550Z,3.95
2023-09-07T23:10:54.355Z,4.10
2023-09-07T23:13:21.509Z,4.25
2023-09-07T23:15:48.811Z,4.03
2023-09-07T23:18:15.818Z,4.40
2023-09-07T23:20:42.855Z,4.45
2023-09-07T23:23:09.942Z,4.80
2023-09-07T23:25:36.747Z,4.80
2023-09-07T23:28:04.815Z,4.87
2023-09-07T23:30:31.934Z,4.80
2023-09-07T23:33:00.276Z,4.80
2023-09-07T23:35:26.971Z,4.85
2023-09-07T23:37:53.818Z,4.97
2023-09-07T23:40:20.663Z,4.57
2023-09-07T23:42:47.734Z,4.30
2023-09-07T23:45:14.242Z,3.95
2023-09-07T23:47:41.110Z,3.40
2023-09-07T23:50:08.130Z,3.08
2023-09-07T23:52:35.066Z,3.30
2023-09-07T23:55:01.610Z,3.30
2023-09-07T23:57:28.338Z,3.20
2023-09-07T23:59:57.955Z,3.28
